createdAt,value
2023-04-14T00:00:18.689Z,12.80
2023-04-14T00:02:48.009Z,9.10
2023-04-14T00:05:16.633Z,10.30
2023-04-14T00:07:46.994Z,9.00
2023-04-14T00:10:15.533Z,7.77
2023-04-14T00:12:43.862Z,11.80
2023-04-14T00:15:12.944Z,8.80
2023-04-14T00:17:41.382Z,13.00
2023-04-14T00:20:11.218Z,14.33
2023-04-14T00:22:39.629Z,10.67
2023-04-14T00:25:10.320Z,11.30
2023-04-14T00:27:38.726Z,8.87
2023-04-14T00:30:08.752Z,10.87
2023-04-14T00:32:37.220Z,9.57
2023-04-14T00:35:06.466Z,8.90
2023-04-14T00:37:34.976Z,9.83
2023-04-14T00:40:03.626Z,11.57
2023-04-14T00:42:33.581Z,11.73
2023-04-14T00:45:01.950Z,10.67
2023-04-14T00:47:30.581Z,9.23
2023-04-14T00:50:00.658Z,10.00
2023-04-14T00:52:29.256Z,6.87
2023-04-14T00:54:58.637Z,12.33
2023-04-14T00:57:28.148Z,15.70
2023-04-14T00:59:59.991Z,10.97
2023-04-14T01:02:29.046Z,9.97
2023-04-14T01:04:58.156Z,10.83
2023-04-14T01:07:28.615Z,10.03
2023-04-14T01:09:58.773Z,10.37
2023-04-14T01:12:46.473Z,14.23
2023-04-14T01:15:25.591Z,12.30
2023-04-14T01:18:04.940Z,9.07
2023-04-14T01:20:40.965Z,8.93
2023-04-14T01:23:12.435Z,11.27
2023-04-14T01:26:22.051Z,11.73
2023-04-14T01:29:26.205Z,10.43
2023-04-14T01:32:05.572Z,9.87
2023-04-14T01:34:40.244Z,10.73
2023-04-14T01:37:15.523Z,9.70
2023-04-14T01:39:51.979Z,10.23
2023-04-14T01:42:25.034Z,8.70
2023-04-14T01:44:59.737Z,9.80
2023-04-14T01:47:30.986Z,9.10
2023-04-14T01:50:02.487Z,11.17
2023-04-14T01:52:32.603Z,10.40
2023-04-14T01:55:05.778Z,10.43
2023-04-14T01:57:35.797Z,9.93
2023-04-14T02:00:05.549Z,9.17
2023-04-14T02:02:37.855Z,10.17
2023-04-14T02:05:09.063Z,12.57
2023-04-14T02:07:37.985Z,10.20
2023-04-14T02:10:10.902Z,14.20
2023-04-14T02:12:42.204Z,12.63
2023-04-14T02:15:16.133Z,14.07
2023-04-14T02:17:48.152Z,8.07
2023-04-14T02:20:17.587Z,9.17
2023-04-14T02:22:45.959Z,13.53
2023-04-14T02:25:14.748Z,9.27
2023-04-14T02:27:50.763Z,14.17
2023-04-14T02:30:25.021Z,11.53
2023-04-14T02:33:03.404Z,9.77
2023-04-14T02:35:38.359Z,10.90
2023-04-14T02:38:17.276Z,8.57
2023-04-14T02:40:46.261Z,9.63
2023-04-14T02:43:20.219Z,9.70
2023-04-14T02:45:50.996Z,7.77
2023-04-14T02:48:26.056Z,9.10
2023-04-14T02:50:56.404Z,9.30
2023-04-14T02:53:27.738Z,10.30
2023-04-14T02:55:56.398Z,11.30
2023-04-14T02:58:25.083Z,10.93
2023-04-14T03:00:54.650Z,10.03
2023-04-14T03:03:28.599Z,9.00
2023-04-14T03:05:57.643Z,12.90
2023-04-14T03:08:27.827Z,11.70
2023-04-14T03:10:57.347Z,9.20
2023-04-14T03:13:28.833Z,8.80
2023-04-14T03:15:58.647Z,10.30
2023-04-14T03:18:31.302Z,14.20
2023-04-14T03:21:02.495Z,8.83
2023-04-14T03:23:31.317Z,10.07
2023-04-14T03:26:00.776Z,11.90
2023-04-14T03:28:31.581Z,11.43
2023-04-14T03:31:03.915Z,13.03
2023-04-14T03:33:34.721Z,13.27
2023-04-14T03:36:04.475Z,11.70
2023-04-14T03:38:34.720Z,11.60
2023-04-14T03:41:05.620Z,9.13
2023-04-14T03:43:36.138Z,12.20
2023-04-14T03:46:06.254Z,11.27
2023-04-14T03:48:42.957Z,9.17
2023-04-14T03:51:15.520Z,14.23
2023-04-14T03:53:46.872Z,10.23
2023-04-14T03:56:17.156Z,11.93
2023-04-14T03:58:49.727Z,14.97
2023-04-14T04:01:20.098Z,10.23
2023-04-14T04:03:50.952Z,14.77
2023-04-14T04:06:19.967Z,10.90
2023-04-14T04:08:50.907Z,12.27
2023-04-14T04:11:22.186Z,11.17
2023-04-14T04:13:51.219Z,10.43
2023-04-14T04:16:22.511Z,11.53
2023-04-14T04:18:52.840Z,10.90
2023-04-14T04:21:22.785Z,13.27
2023-04-14T04:23:56.042Z,8.80
2023-04-14T04:26:27.339Z,11.53
2023-04-14T04:29:00.535Z,10.07
2023-04-14T04:31:29.917Z,11.43
2023-04-14T04:34:00.000Z,12.33
2023-04-14T04:36:29.624Z,11.70
2023-04-14T04:38:58.772Z,12.43
2023-04-14T04:41:29.808Z,15.40
2023-04-14T04:43:59.155Z,9.53
2023-04-14T04:46:47.382Z,15.27
2023-04-14T04:49:17.143Z,13.50
2023-04-14T04:51:45.840Z,13.03
2023-04-14T04:54:14.424Z,13.33
2023-04-14T04:56:42.813Z,10.87
2023-04-14T04:59:11.427Z,15.20
2023-04-14T05:01:39.955Z,14.97
2023-04-14T05:04:08.630Z,9.93
2023-04-14T05:06:38.709Z,11.53
2023-04-14T05:09:14.534Z,10.20
2023-04-14T05:11:43.467Z,13.40
2023-04-14T05:14:12.964Z,13.00
2023-04-14T05:16:41.350Z,12.53
2023-04-14T05:19:09.918Z,13.20
2023-04-14T05:21:39.901Z,15.97
2023-04-14T05:24:14.581Z,17.07
2023-04-14T05:27:01.781Z,14.40
2023-04-14T05:29:32.146Z,14.43
2023-04-14T05:32:00.724Z,14.77
2023-04-14T05:34:29.378Z,17.57
2023-04-14T05:37:00.255Z,13.57
2023-04-14T05:39:36.766Z,14.00
2023-04-14T05:42:05.691Z,15.37
2023-04-14T05:44:34.985Z,14.40
2023-04-14T05:47:03.927Z,18.33
2023-04-14T05:49:32.487Z,22.67
2023-04-14T05:52:02.219Z,25.80
2023-04-14T05:54:35.400Z,18.23
2023-04-14T05:57:03.788Z,21.97
2023-04-14T05:59:32.133Z,13.93
2023-04-14T06:02:04.921Z,18.67
2023-04-14T06:04:33.764Z,14.70
2023-04-14T06:07:04.702Z,9.93
2023-04-14T06:09:33.053Z,10.80
2023-04-14T06:12:01.736Z,11.30
2023-04-14T06:14:30.255Z,8.93
2023-04-14T06:17:00.086Z,12.80
2023-04-14T06:19:28.496Z,13.83
2023-04-14T06:21:57.425Z,8.97
2023-04-14T06:24:27.821Z,12.17
2023-04-14T06:26:56.269Z,9.77
2023-04-14T06:29:26.573Z,10.97
2023-04-14T06:31:55.138Z,9.13
2023-04-14T06:34:23.641Z,10.83
2023-04-14T06:36:53.070Z,9.83
2023-04-14T06:39:22.465Z,9.37
2023-04-14T06:41:52.759Z,7.60
2023-04-14T06:44:21.190Z,8.87
2023-04-14T06:46:50.039Z,7.07
2023-04-14T06:49:20.050Z,7.20
2023-04-14T06:51:48.648Z,9.00
2023-04-14T06:54:17.039Z,8.20
2023-04-14T06:56:50.005Z,7.57
2023-04-14T06:59:21.553Z,8.37
2023-04-14T07:01:50.353Z,10.47
2023-04-14T07:04:19.724Z,11.87
2023-04-14T07:06:48.369Z,10.43
2023-04-14T07:09:17.109Z,8.57
2023-04-14T07:11:55.435Z,6.17
2023-04-14T07:14:26.097Z,7.23
2023-04-14T07:16:55.127Z,9.57
2023-04-14T07:19:23.548Z,8.63
2023-04-14T07:21:52.731Z,8.17
2023-04-14T07:24:22.159Z,8.27
2023-04-14T07:26:51.008Z,7.10
2023-04-14T07:29:19.873Z,10.33
2023-04-14T07:31:50.036Z,7.90
2023-04-14T07:34:20.031Z,7.60
2023-04-14T07:36:49.807Z,8.07
2023-04-14T07:39:22.722Z,7.10
2023-04-14T07:41:51.269Z,8.03
2023-04-14T07:44:19.860Z,8.40
2023-04-14T07:46:49.845Z,7.93
2023-04-14T07:49:18.513Z,6.47
2023-04-14T07:51:47.133Z,7.93
2023-04-14T07:54:16.134Z,6.27
2023-04-14T07:56:44.549Z,9.30
2023-04-14T07:59:12.988Z,8.03
2023-04-14T08:01:41.612Z,8.20
2023-04-14T08:04:12.575Z,6.50
2023-04-14T08:06:41.286Z,6.73
2023-04-14T08:09:09.669Z,5.53
2023-04-14T08:11:37.995Z,6.50
2023-04-14T08:14:06.482Z,8.20
2023-04-14T08:16:36.914Z,8.40
2023-04-14T08:19:06.299Z,7.80
2023-04-14T08:21:36.370Z,5.50
2023-04-14T08:24:06.511Z,4.43
2023-04-14T08:26:35.316Z,6.83
2023-04-14T08:29:03.852Z,8.63
2023-04-14T08:31:33.203Z,5.97
2023-04-14T08:34:01.690Z,5.87
2023-04-14T08:36:30.316Z,6.23
2023-04-14T08:39:02.632Z,8.23
2023-04-14T08:41:35.305Z,5.93
2023-04-14T08:44:03.980Z,4.13
2023-04-14T08:46:34.720Z,7.57
2023-04-14T08:49:06.474Z,6.87
2023-04-14T08:51:38.300Z,6.97
2023-04-14T08:54:11.387Z,4.53
2023-04-14T08:56:41.548Z,4.03
2023-04-14T08:59:11.709Z,5.30
2023-04-14T09:01:42.367Z,4.63
2023-04-14T09:04:11.964Z,5.70
2023-04-14T09:06:40.766Z,6.00
2023-04-14T09:09:11.021Z,8.83
2023-04-14T09:11:39.928Z,7.63
2023-04-14T09:14:10.133Z,4.03
2023-04-14T09:16:40.623Z,6.40
2023-04-14T09:19:10.588Z,4.43
2023-04-14T09:21:53.567Z,5.30
2023-04-14T09:24:31.747Z,6.23
2023-04-14T09:27:05.241Z,6.97
2023-04-14T09:29:34.089Z,5.33
2023-04-14T09:32:02.976Z,7.40
2023-04-14T09:34:32.193Z,6.00
2023-04-14T09:37:03.513Z,6.27
2023-04-14T09:39:33.442Z,5.73
2023-04-14T09:42:02.820Z,6.93
2023-04-14T09:44:31.978Z,8.63
2023-04-14T09:47:02.650Z,6.87
2023-04-14T09:49:31.127Z,7.90
2023-04-14T09:52:08.810Z,7.00
2023-04-14T09:54:42.055Z,5.53
2023-04-14T09:57:10.455Z,9.33
2023-04-14T09:59:40.695Z,5.90
2023-04-14T10:02:11.159Z,6.20
2023-04-14T10:04:39.859Z,5.33
2023-04-14T10:07:09.048Z,6.17
2023-04-14T10:09:40.679Z,7.03
2023-04-14T10:12:12.202Z,6.90
2023-04-14T10:14:41.748Z,8.93
2023-04-14T10:17:10.652Z,7.47
2023-04-14T10:19:39.758Z,9.70
2023-04-14T10:22:08.139Z,7.03
2023-04-14T10:24:38.660Z,8.10
2023-04-14T10:27:07.787Z,7.10
2023-04-14T10:29:36.247Z,6.60
2023-04-14T10:32:08.320Z,8.77
2023-04-14T10:34:42.654Z,9.27
2023-04-14T10:37:15.159Z,11.60
2023-04-14T10:39:45.105Z,8.73
2023-04-14T10:42:13.455Z,8.50
2023-04-14T10:44:41.859Z,9.80
2023-04-14T10:47:10.860Z,6.63
2023-04-14T10:49:42.237Z,7.80
2023-04-14T10:52:52.183Z,9.53
2023-04-14T10:55:26.187Z,6.73
2023-04-14T10:58:04.950Z,7.07
2023-04-14T11:00:33.609Z,6.77
2023-04-14T11:03:07.927Z,10.60
2023-04-14T11:05:38.213Z,11.93
2023-04-14T11:08:15.827Z,7.73
2023-04-14T11:10:52.427Z,7.57
2023-04-14T11:13:22.111Z,5.87
2023-04-14T11:15:53.329Z,6.90
2023-04-14T11:18:37.210Z,8.40
2023-04-14T11:21:07.535Z,7.90
2023-04-14T11:23:37.066Z,6.17
2023-04-14T11:26:09.552Z,6.50
2023-04-14T11:28:40.192Z,8.03
2023-04-14T11:31:11.168Z,7.70
2023-04-14T11:33:42.522Z,7.27
2023-04-14T11:36:13.080Z,8.07
2023-04-14T11:38:41.738Z,7.83
2023-04-14T11:41:11.607Z,7.83
2023-04-14T11:43:46.420Z,7.73
2023-04-14T11:46:15.689Z,6.93
2023-04-14T11:48:44.181Z,6.03
2023-04-14T11:51:12.520Z,8.80
2023-04-14T11:53:41.302Z,8.97
2023-04-14T11:56:12.842Z,9.07
2023-04-14T11:58:42.131Z,7.43
2023-04-14T12:01:14.422Z,5.73
2023-04-14T12:03:43.309Z,6.83
2023-04-14T12:06:12.029Z,5.97
2023-04-14T12:08:40.407Z,9.27
2023-04-14T12:11:16.553Z,6.53
2023-04-14T12:13:46.639Z,8.40
2023-04-14T12:16:17.476Z,11.60
2023-04-14T12:18:46.310Z,9.23
2023-04-14T12:21:20.169Z,5.85
2023-04-14T12:23:49.967Z,8.55
2023-04-14T12:26:21.392Z,6.93
2023-04-14T12:28:58.074Z,7.32
2023-04-14T12:31:32.932Z,6.75
2023-04-14T12:34:03.436Z,8.90
2023-04-14T12:36:48.021Z,6.97
2023-04-14T12:39:18.800Z,4.57
2023-04-14T12:41:48.741Z,6.78
2023-04-14T12:44:18.582Z,5.78
2023-04-14T12:46:50.096Z,7.45
2023-04-14T12:49:34.758Z,6.22
2023-04-14T12:52:03.713Z,6.85
2023-04-14T12:54:50.045Z,4.95
2023-04-14T12:57:21.887Z,5.32
2023-04-14T12:59:50.662Z,6.57
2023-04-14T13:02:19.496Z,7.18
2023-04-14T13:04:48.038Z,8.52
2023-04-14T13:07:16.475Z,6.45
2023-04-14T13:09:44.786Z,5.72
2023-04-14T13:12:13.314Z,8.13
2023-04-14T13:14:43.089Z,7.60
2023-04-14T13:17:13.055Z,5.38
2023-04-14T13:19:41.572Z,5.82
2023-04-14T13:22:09.952Z,8.10
2023-04-14T13:24:38.396Z,7.50
2023-04-14T13:27:07.700Z,6.40
2023-04-14T13:29:36.698Z,8.35
2023-04-14T13:32:11.117Z,5.40
2023-04-14T13:34:40.885Z,8.57
2023-04-14T13:37:09.217Z,7.97
2023-04-14T13:39:37.698Z,7.50
2023-04-14T13:42:06.742Z,6.78
2023-04-14T13:44:35.746Z,7.95
2023-04-14T13:47:05.615Z,5.18
2023-04-14T13:49:34.005Z,5.82
2023-04-14T13:52:02.643Z,5.82
2023-04-14T13:54:31.053Z,7.75
2023-04-14T13:56:59.390Z,6.97
2023-04-14T13:59:28.150Z,5.20
2023-04-14T14:01:56.724Z,6.88
2023-04-14T14:04:27.384Z,5.95
2023-04-14T14:06:56.281Z,7.57
2023-04-14T14:09:24.868Z,5.22
2023-04-14T14:11:53.261Z,7.22
2023-04-14T14:14:22.626Z,4.93
2023-04-14T14:16:51.286Z,5.50
2023-04-14T14:19:19.859Z,5.93
2023-04-14T14:21:50.053Z,5.38
2023-04-14T14:24:18.537Z,5.15
2023-04-14T14:26:46.876Z,5.03
2023-04-14T14:29:15.176Z,6.57
2023-04-14T14:31:43.587Z,6.47
2023-04-14T14:34:12.122Z,5.95
2023-04-14T14:36:40.438Z,6.45
2023-04-14T14:39:10.399Z,7.65
2023-04-14T14:41:39.526Z,4.30
2023-04-14T14:44:07.998Z,5.63
2023-04-14T14:46:36.590Z,6.18
2023-04-14T14:49:05.101Z,6.63
2023-04-14T14:51:33.472Z,9.05
2023-04-14T14:54:09.343Z,7.80
2023-04-14T14:56:40.214Z,5.15
2023-04-14T14:59:09.721Z,6.00
2023-04-14T15:01:38.301Z,7.65
2023-04-14T15:04:07.843Z,8.82
2023-04-14T15:06:37.628Z,6.90
2023-04-14T15:09:06.614Z,7.63
2023-04-14T15:11:34.956Z,8.73
2023-04-14T15:14:06.042Z,7.77
2023-04-14T15:16:34.884Z,6.27
2023-04-14T15:19:03.610Z,8.27
2023-04-14T15:21:33.262Z,8.73
2023-04-14T15:24:02.139Z,8.13
2023-04-14T15:26:30.697Z,6.03
2023-04-14T15:28:59.079Z,9.00
2023-04-14T15:31:29.216Z,6.37
2023-04-14T15:34:00.311Z,7.47
2023-04-14T15:36:29.276Z,8.40
2023-04-14T15:38:57.999Z,8.60
2023-04-14T15:41:26.943Z,8.83
2023-04-14T15:43:55.350Z,9.23
2023-04-14T15:46:24.539Z,7.33
2023-04-14T15:48:54.337Z,5.93
2023-04-14T15:51:22.951Z,6.83
2023-04-14T15:53:52.679Z,8.27
2023-04-14T15:56:23.468Z,7.17
2023-04-14T15:58:52.602Z,5.57
2023-04-14T16:01:21.451Z,7.83
2023-04-14T16:03:52.605Z,7.47
2023-04-14T16:06:23.534Z,8.10
2023-04-14T16:08:52.104Z,7.67
2023-04-14T16:11:20.803Z,8.77
2023-04-14T16:13:49.128Z,8.60
2023-04-14T16:16:18.523Z,6.70
2023-04-14T16:18:46.884Z,6.13
2023-04-14T16:21:15.790Z,8.30
2023-04-14T16:23:45.775Z,7.20
2023-04-14T16:26:14.098Z,7.23
2023-04-14T16:28:42.389Z,7.77
2023-04-14T16:31:16.496Z,10.30
2023-04-14T16:33:44.981Z,8.43
2023-04-14T16:36:13.421Z,7.43
2023-04-14T16:38:41.899Z,6.82
2023-04-14T16:41:12.118Z,8.25
2023-04-14T16:43:40.605Z,6.82
2023-04-14T16:46:25.041Z,7.80
2023-04-14T16:48:54.503Z,6.75
2023-04-14T16:51:25.710Z,6.57
2023-04-14T16:53:54.193Z,9.45
2023-04-14T16:56:24.519Z,7.03
2023-04-14T16:58:53.391Z,6.63
2023-04-14T17:01:22.525Z,6.63
2023-04-14T17:03:51.581Z,9.57
2023-04-14T17:06:21.369Z,6.20
2023-04-14T17:08:50.119Z,5.00
2023-04-14T17:11:18.658Z,6.07
2023-04-14T17:13:48.441Z,7.05
2023-04-14T17:16:17.532Z,6.07
2023-04-14T17:18:54.002Z,5.20
2023-04-14T17:21:23.827Z,4.68
2023-04-14T17:23:52.891Z,3.65
2023-04-14T17:26:21.745Z,5.15
2023-04-14T17:28:51.769Z,3.60
2023-04-14T17:31:22.962Z,4.18
2023-04-14T17:33:52.738Z,4.35
2023-04-14T17:36:21.889Z,4.88
2023-04-14T17:38:51.435Z,5.75
2023-04-14T17:41:23.806Z,7.40
2023-04-14T17:43:54.545Z,5.57
2023-04-14T17:46:33.414Z,3.97
2023-04-14T17:49:02.788Z,5.80
2023-04-14T17:51:33.065Z,4.13
2023-04-14T17:54:02.252Z,6.53
2023-04-14T17:56:31.868Z,5.07
2023-04-14T17:59:02.423Z,5.80
2023-04-14T18:01:30.894Z,6.63
2023-04-14T18:04:00.346Z,4.93
2023-04-14T18:06:30.137Z,5.87
2023-04-14T18:08:58.614Z,4.80
2023-04-14T18:11:27.561Z,4.20
2023-04-14T18:13:55.933Z,4.77
2023-04-14T18:16:26.433Z,5.40
2023-04-14T18:18:55.558Z,3.90
2023-04-14T18:21:24.070Z,4.47
2023-04-14T18:26:27.404Z,4.50
2023-04-14T18:28:57.372Z,7.90
2023-04-14T18:31:27.401Z,5.90
2023-04-14T18:33:58.282Z,5.77
2023-04-14T18:36:27.249Z,4.70
2023-04-14T18:38:56.196Z,5.13
2023-04-14T18:41:24.836Z,4.83
2023-04-14T18:43:53.727Z,5.67
2023-04-14T18:46:23.038Z,4.97
2023-04-14T18:48:53.102Z,6.37
2023-04-14T18:51:21.726Z,7.37
2023-04-14T18:53:50.181Z,6.83
2023-04-14T18:56:18.684Z,4.90
2023-04-14T18:58:47.667Z,6.03
2023-04-14T19:01:17.344Z,4.63
2023-04-14T19:03:47.246Z,7.50
2023-04-14T19:06:17.221Z,8.27
2023-04-14T19:08:45.572Z,5.83
2023-04-14T19:11:13.846Z,5.70
2023-04-14T19:13:42.866Z,7.77
2023-04-14T19:16:12.719Z,6.07
2023-04-14T19:18:41.761Z,5.23
2023-04-14T19:21:10.451Z,8.77
2023-04-14T19:23:40.996Z,7.00
2023-04-14T19:26:11.535Z,6.17
2023-04-14T19:28:42.498Z,7.50
2023-04-14T19:31:12.561Z,8.60
2023-04-14T19:33:41.906Z,6.77
2023-04-14T19:36:14.356Z,9.40
2023-04-14T19:38:44.425Z,8.83
2023-04-14T19:41:12.956Z,6.40
2023-04-14T19:43:41.388Z,7.90
2023-04-14T19:46:12.889Z,6.97
2023-04-14T19:48:41.406Z,6.03
2023-04-14T19:51:10.126Z,7.13
2023-04-14T19:53:38.671Z,7.20
2023-04-14T19:56:08.821Z,7.27
2023-04-14T19:58:37.152Z,5.73
2023-04-14T20:01:05.834Z,6.53
2023-04-14T20:03:34.776Z,6.30
2023-04-14T20:06:03.466Z,8.27
2023-04-14T20:08:32.280Z,8.30
2023-04-14T20:11:00.767Z,9.23
2023-04-14T20:13:34.142Z,7.57
2023-04-14T20:16:02.748Z,8.23
2023-04-14T20:18:31.117Z,8.27
2023-04-14T20:20:59.695Z,12.03
2023-04-14T20:23:29.005Z,6.83
2023-04-14T20:25:59.023Z,7.17
2023-04-14T20:28:29.746Z,5.83
2023-04-14T20:30:58.504Z,8.47
2023-04-14T20:33:29.616Z,8.13
2023-04-14T20:36:01.713Z,5.73
2023-04-14T20:38:30.388Z,8.00
2023-04-14T20:40:59.187Z,7.27
2023-04-14T20:43:34.077Z,8.33
2023-04-14T20:46:04.209Z,7.90
2023-04-14T20:48:33.157Z,7.60
2023-04-14T20:51:01.735Z,9.10
2023-04-14T20:53:30.165Z,9.53
2023-04-14T20:55:58.651Z,8.57
2023-04-14T20:58:27.049Z,8.53
2023-04-14T21:00:57.549Z,10.07
2023-04-14T21:03:27.493Z,7.93
2023-04-14T21:05:56.502Z,10.27
2023-04-14T21:08:24.929Z,10.90
2023-04-14T21:11:14.211Z,10.67
2023-04-14T21:15:26.324Z,7.47
2023-04-14T21:16:31.985Z,9.90
2023-04-14T21:19:01.113Z,10.60
2023-04-14T21:21:29.836Z,9.43
2023-04-14T21:23:59.342Z,10.37
2023-04-14T21:26:28.698Z,10.30
2023-04-14T21:28:57.676Z,8.87
2023-04-14T21:31:27.537Z,8.60
2023-04-14T21:33:58.032Z,8.93
2023-04-14T21:36:27.466Z,10.60
2023-04-14T21:38:56.517Z,9.80
2023-04-14T21:41:25.310Z,10.10
2023-04-14T21:43:53.603Z,12.90
2023-04-14T21:46:22.247Z,10.43
2023-04-14T21:48:51.205Z,10.27
2023-04-14T21:51:21.248Z,10.37
2023-04-14T21:53:49.675Z,9.07
2023-04-14T21:56:18.115Z,12.07
2023-04-14T21:58:46.919Z,9.50
2023-04-14T22:01:15.446Z,10.33
2023-04-14T22:03:46.612Z,15.10
2023-04-14T22:06:15.174Z,11.73
2023-04-14T22:08:44.985Z,11.07
2023-04-14T22:11:14.496Z,9.27
2023-04-14T22:13:43.124Z,8.03
2023-04-14T22:16:12.055Z,9.50
2023-04-14T22:18:40.896Z,9.90
2023-04-14T22:21:12.251Z,12.67
2023-04-14T22:23:40.801Z,10.37
2023-04-14T22:26:11.722Z,9.83
2023-04-14T22:28:40.117Z,9.50
2023-04-14T22:31:09.831Z,7.73
2023-04-14T22:33:38.313Z,10.30
2023-04-14T22:36:07.701Z,11.67
2023-04-14T22:38:36.305Z,12.03
2023-04-14T22:41:04.707Z,10.67
2023-04-14T22:43:34.517Z,12.27
2023-04-14T22:46:02.958Z,11.73
2023-04-14T22:48:31.720Z,11.60
2023-04-14T22:51:00.316Z,11.53
2023-04-14T22:53:28.822Z,9.57
2023-04-14T22:55:58.278Z,10.77
2023-04-14T22:58:27.199Z,10.80
2023-04-14T23:00:56.962Z,14.93
2023-04-14T23:03:25.612Z,12.83
2023-04-14T23:05:55.370Z,13.83
2023-04-14T23:08:24.000Z,11.37
2023-04-14T23:10:52.877Z,11.50
2023-04-14T23:13:21.659Z,10.13
2023-04-14T23:15:52.722Z,10.53
2023-04-14T23:18:24.526Z,14.40
2023-04-14T23:20:53.152Z,12.93
2023-04-14T23:23:21.582Z,12.57
2023-04-14T23:25:50.213Z,12.43
2023-04-14T23:28:18.640Z,12.97
2023-04-14T23:30:47.110Z,11.10
2023-04-14T23:33:15.655Z,9.87
2023-04-14T23:35:45.476Z,14.03
2023-04-14T23:38:14.031Z,12.73
2023-04-14T23:40:42.381Z,10.90
2023-04-14T23:43:11.487Z,10.50
2023-04-14T23:45:39.940Z,13.03
2023-04-14T23:48:08.857Z,15.43
2023-04-14T23:51:02.218Z,12.90
2023-04-14T23:53:28.212Z,12.63
2023-04-14T23:55:56.616Z,13.30
2023-04-14T23:58:28.035Z,11.23
